sensor_id;sensor_type;location;lat;lon;timestamp;P1;durP1;ratioP1;P2;durP2;ratioP2
8219;SDS011;4151;51.110;7.020;2023-05-17T00:01:47;4.73;;;2.50;;
8219;SDS011;4151;51.110;7.020;2023-05-17T00:04:12;6.20;;;2.73;;
8219;SDS011;4151;51.110;7.020;2023-05-17T00:06:38;10.23;;;2.43;;
8219;SDS011;4151;51.110;7.020;2023-05-17T00:09:03;5.63;;;2.40;;
8219;SDS011;4151;51.110;7.020;2023-05-17T00:11:29;4.20;;;2.37;;
8219;SDS011;4151;51.110;7.020;2023-05-17T00:13:55;6.97;;;2.73;;
8219;SDS011;4151;51.110;7.020;2023-05-17T00:16:21;10.63;;;2.27;;
8219;SDS011;4151;51.110;7.020;2023-05-17T00:18:46;5.37;;;2.53;;
8219;SDS011;4151;51.110;7.020;2023-05-17T00:21:12;3.73;;;2.40;;
8219;SDS011;4151;51.110;7.020;2023-05-17T00:23:37;10.40;;;2.53;;
8219;SDS011;4151;51.110;7.020;2023-05-17T00:26:03;19.90;;;3.40;;
8219;SDS011;4151;51.110;7.020;2023-05-17T00:28:28;7.70;;;4.00;;
8219;SDS011;4151;51.110;7.020;2023-05-17T00:30:54;9.40;;;2.87;;
8219;SDS011;4151;51.110;7.020;2023-05-17T00:33:20;5.43;;;2.57;;
8219;SDS011;4151;51.110;7.020;2023-05-17T00:35:45;5.60;;;2.97;;
8219;SDS011;4151;51.110;7.020;2023-05-17T00:38:11;6.20;;;2.50;;
8219;SDS011;4151;51.110;7.020;2023-05-17T00:40:36;3.27;;;2.43;;
8219;SDS011;4151;51.110;7.020;2023-05-17T00:43:02;4.27;;;2.30;;
8219;SDS011;4151;51.110;7.020;2023-05-17T00:45:27;4.60;;;2.03;;
8219;SDS011;4151;51.110;7.020;2023-05-17T00:47:53;10.03;;;2.80;;
8219;SDS011;4151;51.110;7.020;2023-05-17T00:50:18;4.10;;;2.70;;
8219;SDS011;4151;51.110;7.020;2023-05-17T00:52:44;8.03;;;2.90;;
8219;SDS011;4151;51.110;7.020;2023-05-17T00:55:10;6.33;;;3.30;;
8219;SDS011;4151;51.110;7.020;2023-05-17T00:57:36;5.43;;;3.07;;
8219;SDS011;4151;51.110;7.020;2023-05-17T01:00:03;10.45;;;3.50;;
8219;SDS011;4151;51.110;7.020;2023-05-17T01:02:29;6.13;;;2.87;;
8219;SDS011;4151;51.110;7.020;2023-05-17T01:04:55;5.90;;;2.70;;
8219;SDS011;4151;51.110;7.020;2023-05-17T01:07:21;4.70;;;2.47;;
8219;SDS011;4151;51.110;7.020;2023-05-17T01:09:47;8.80;;;2.70;;
8219;SDS011;4151;51.110;7.020;2023-05-17T01:15:11;5.50;;;2.60;;
8219;SDS011;4151;51.110;7.020;2023-05-17T01:20:46;4.93;;;3.07;;
8219;SDS011;4151;51.110;7.020;2023-05-17T01:26:13;8.97;;;3.57;;
8219;SDS011;4151;51.110;7.020;2023-05-17T01:28:39;5.80;;;3.10;;
8219;SDS011;4151;51.110;7.020;2023-05-17T01:31:07;8.97;;;3.00;;
8219;SDS011;4151;51.110;7.020;2023-05-17T01:33:34;4.93;;;2.70;;
8219;SDS011;4151;51.110;7.020;2023-05-17T01:36:01;8.80;;;3.10;;
8219;SDS011;4151;51.110;7.020;2023-05-17T01:38:27;5.80;;;2.90;;
8219;SDS011;4151;51.110;7.020;2023-05-17T01:40:57;5.80;;;2.50;;
8219;SDS011;4151;51.110;7.020;2023-05-17T01:48:58;9.10;;;2.57;;
8219;SDS011;4151;51.110;7.020;2023-05-17T01:51:52;9.00;;;2.80;;
8219;SDS011;4151;51.110;7.020;2023-05-17T01:54:28;3.93;;;2.80;;
8219;SDS011;4151;51.110;7.020;2023-05-17T01:56:59;4.87;;;2.67;;
8219;SDS011;4151;51.110;7.020;2023-05-17T01:59:28;6.10;;;2.90;;
8219;SDS011;4151;51.110;7.020;2023-05-17T02:01:56;5.03;;;3.30;;
8219;SDS011;4151;51.110;7.020;2023-05-17T02:04:30;7.23;;;3.20;;
8219;SDS011;4151;51.110;7.020;2023-05-17T02:06:55;7.17;;;3.80;;
8219;SDS011;4151;51.110;7.020;2023-05-17T02:09:21;9.33;;;3.67;;
8219;SDS011;4151;51.110;7.020;2023-05-17T02:11:47;11.77;;;3.60;;
8219;SDS011;4151;51.110;7.020;2023-05-17T02:14:12;6.60;;;2.70;;
8219;SDS011;4151;51.110;7.020;2023-05-17T02:16:38;5.83;;;3.20;;
8219;SDS011;4151;51.110;7.020;2023-05-17T02:19:03;9.20;;;3.50;;
8219;SDS011;4151;51.110;7.020;2023-05-17T02:21:29;7.13;;;3.17;;
8219;SDS011;4151;51.110;7.020;2023-05-17T02:23:54;3.67;;;3.00;;
8219;SDS011;4151;51.110;7.020;2023-05-17T02:26:20;9.63;;;3.67;;
8219;SDS011;4151;51.110;7.020;2023-05-17T02:28:46;6.77;;;3.50;;
8219;SDS011;4151;51.110;7.020;2023-05-17T02:31:11;8.07;;;3.50;;
8219;SDS011;4151;51.110;7.020;2023-05-17T02:33:37;11.13;;;3.53;;
8219;SDS011;4151;51.110;7.020;2023-05-17T02:36:02;8.93;;;3.40;;
8219;SDS011;4151;51.110;7.020;2023-05-17T02:38:28;9.40;;;3.60;;
8219;SDS011;4151;51.110;7.020;2023-05-17T02:40:54;11.70;;;3.50;;
8219;SDS011;4151;51.110;7.020;2023-05-17T02:43:19;7.93;;;3.50;;
8219;SDS011;4151;51.110;7.020;2023-05-17T02:45:45;13.43;;;3.40;;
8219;SDS011;4151;51.110;7.020;2023-05-17T02:48:11;6.97;;;3.20;;
8219;SDS011;4151;51.110;7.020;2023-05-17T02:50:36;8.57;;;4.03;;
8219;SDS011;4151;51.110;7.020;2023-05-17T02:53:02;3.20;;;2.70;;
8219;SDS011;4151;51.110;7.020;2023-05-17T02:55:27;5.93;;;3.27;;
8219;SDS011;4151;51.110;7.020;2023-05-17T02:57:53;9.37;;;3.90;;
8219;SDS011;4151;51.110;7.020;2023-05-17T03:00:18;13.57;;;3.40;;
8219;SDS011;4151;51.110;7.020;2023-05-17T03:02:44;7.80;;;3.50;;
8219;SDS011;4151;51.110;7.020;2023-05-17T03:05:10;10.80;;;4.70;;
8219;SDS011;4151;51.110;7.020;2023-05-17T03:07:35;11.30;;;4.83;;
8219;SDS011;4151;51.110;7.020;2023-05-17T03:10:01;13.30;;;4.50;;
8219;SDS011;4151;51.110;7.020;2023-05-17T03:12:27;15.07;;;7.40;;
8219;SDS011;4151;51.110;7.020;2023-05-17T03:14:52;13.87;;;5.33;;
8219;SDS011;4151;51.110;7.020;2023-05-17T03:17:18;12.50;;;5.27;;
8219;SDS011;4151;51.110;7.020;2023-05-17T03:19:43;12.37;;;5.40;;
8219;SDS011;4151;51.110;7.020;2023-05-17T03:22:09;11.47;;;4.87;;
8219;SDS011;4151;51.110;7.020;2023-05-17T03:24:35;14.30;;;5.10;;
8219;SDS011;4151;51.110;7.020;2023-05-17T03:27:00;14.30;;;5.73;;
8219;SDS011;4151;51.110;7.020;2023-05-17T03:29:26;8.83;;;5.10;;
8219;SDS011;4151;51.110;7.020;2023-05-17T03:31:51;10.60;;;4.80;;
8219;SDS011;4151;51.110;7.020;2023-05-17T03:34:17;8.37;;;4.40;;
8219;SDS011;4151;51.110;7.020;2023-05-17T03:36:42;19.27;;;4.87;;
8219;SDS011;4151;51.110;7.020;2023-05-17T03:39:08;7.37;;;3.63;;
8219;SDS011;4151;51.110;7.020;2023-05-17T03:41:33;10.17;;;3.50;;
8219;SDS011;4151;51.110;7.020;2023-05-17T03:43:59;23.73;;;9.10;;
8219;SDS011;4151;51.110;7.020;2023-05-17T03:46:25;11.50;;;5.30;;
8219;SDS011;4151;51.110;7.020;2023-05-17T03:48:50;7.20;;;3.57;;
8219;SDS011;4151;51.110;7.020;2023-05-17T03:51:16;6.50;;;3.57;;
8219;SDS011;4151;51.110;7.020;2023-05-17T03:53:42;8.13;;;3.50;;
8219;SDS011;4151;51.110;7.020;2023-05-17T03:56:08;7.70;;;3.13;;
8219;SDS011;4151;51.110;7.020;2023-05-17T03:58:34;4.37;;;3.20;;
8219;SDS011;4151;51.110;7.020;2023-05-17T04:01:00;7.00;;;3.10;;
8219;SDS011;4151;51.110;7.020;2023-05-17T04:03:26;8.17;;;3.53;;
8219;SDS011;4151;51.110;7.020;2023-05-17T04:05:52;4.60;;;2.97;;
8219;SDS011;4151;51.110;7.020;2023-05-17T04:08:17;5.70;;;2.90;;
8219;SDS011;4151;51.110;7.020;2023-05-17T04:10:43;8.20;;;4.10;;
8219;SDS011;4151;51.110;7.020;2023-05-17T04:13:08;6.77;;;3.17;;
8219;SDS011;4151;51.110;7.020;2023-05-17T04:15:34;5.50;;;2.80;;
8219;SDS011;4151;51.110;7.020;2023-05-17T04:18:00;6.70;;;3.33;;
8219;SDS011;4151;51.110;7.020;2023-05-17T04:20:26;4.00;;;2.60;;
8219;SDS011;4151;51.110;7.020;2023-05-17T04:22:51;7.10;;;3.00;;
8219;SDS011;4151;51.110;7.020;2023-05-17T04:25:17;5.93;;;3.77;;
8219;SDS011;4151;51.110;7.020;2023-05-17T04:27:44;7.73;;;3.03;;
8219;SDS011;4151;51.110;7.020;2023-05-17T04:30:10;5.00;;;3.03;;
8219;SDS011;4151;51.110;7.020;2023-05-17T04:32:37;7.20;;;3.23;;
8219;SDS011;4151;51.110;7.020;2023-05-17T04:35:03;6.60;;;3.10;;
8219;SDS011;4151;51.110;7.020;2023-05-17T04:37:29;7.40;;;4.03;;
8219;SDS011;4151;51.110;7.020;2023-05-17T04:39:55;5.10;;;2.90;;
8219;SDS011;4151;51.110;7.020;2023-05-17T04:42:20;11.03;;;3.07;;
8219;SDS011;4151;51.110;7.020;2023-05-17T04:44:46;11.63;;;4.23;;
8219;SDS011;4151;51.110;7.020;2023-05-17T04:47:11;6.47;;;3.10;;
8219;SDS011;4151;51.110;7.020;2023-05-17T04:49:37;9.13;;;3.40;;
8219;SDS011;4151;51.110;7.020;2023-05-17T04:52:03;7.50;;;3.67;;
8219;SDS011;4151;51.110;7.020;2023-05-17T04:54:29;8.80;;;4.00;;
8219;SDS011;4151;51.110;7.020;2023-05-17T04:56:54;5.33;;;3.07;;
8219;SDS011;4151;51.110;7.020;2023-05-17T04:59:20;11.50;;;4.07;;
8219;SDS011;4151;51.110;7.020;2023-05-17T05:01:46;11.07;;;3.73;;
8219;SDS011;4151;51.110;7.020;2023-05-17T05:04:11;11.23;;;3.47;;
8219;SDS011;4151;51.110;7.020;2023-05-17T05:06:37;90.10;;;34.73;;
8219;SDS011;4151;51.110;7.020;2023-05-17T05:09:02;59.97;;;27.30;;
8219;SDS011;4151;51.110;7.020;2023-05-17T05:11:28;11.60;;;4.90;;
8219;SDS011;4151;51.110;7.020;2023-05-17T05:13:55;12.30;;;5.23;;
8219;SDS011;4151;51.110;7.020;2023-05-17T05:16:20;7.50;;;3.90;;
8219;SDS011;4151;51.110;7.020;2023-05-17T05:18:46;15.83;;;5.43;;
8219;SDS011;4151;51.110;7.020;2023-05-17T05:21:12;22.53;;;5.07;;
8219;SDS011;4151;51.110;7.020;2023-05-17T05:23:37;16.37;;;5.60;;
8219;SDS011;4151;51.110;7.020;2023-05-17T05:26:03;15.43;;;5.00;;
8219;SDS011;4151;51.110;7.020;2023-05-17T05:28:29;13.43;;;4.93;;
8219;SDS011;4151;51.110;7.020;2023-05-17T05:30:58;11.07;;;4.33;;
8219;SDS011;4151;51.110;7.020;2023-05-17T05:33:24;14.20;;;5.27;;
8219;SDS011;4151;51.110;7.020;2023-05-17T05:35:50;11.53;;;6.43;;
8219;SDS011;4151;51.110;7.020;2023-05-17T05:38:15;12.20;;;5.60;;
8219;SDS011;4151;51.110;7.020;2023-05-17T05:40:41;11.17;;;5.53;;
8219;SDS011;4151;51.110;7.020;2023-05-17T05:43:06;15.60;;;5.77;;
8219;SDS011;4151;51.110;7.020;2023-05-17T05:45:32;11.27;;;5.33;;
8219;SDS011;4151;51.110;7.020;2023-05-17T05:47:58;15.03;;;6.50;;
8219;SDS011;4151;51.110;7.020;2023-05-17T05:50:23;17.50;;;5.43;;
8219;SDS011;4151;51.110;7.020;2023-05-17T05:52:49;15.80;;;6.23;;
8219;SDS011;4151;51.110;7.020;2023-05-17T05:55:14;34.23;;;8.63;;
8219;SDS011;4151;51.110;7.020;2023-05-17T05:57:40;15.40;;;7.13;;
8219;SDS011;4151;51.110;7.020;2023-05-17T06:00:05;27.87;;;9.57;;
8219;SDS011;4151;51.110;7.020;2023-05-17T06:02:31;20.23;;;9.00;;
8219;SDS011;4151;51.110;7.020;2023-05-17T06:04:57;18.30;;;8.67;;
8219;SDS011;4151;51.110;7.020;2023-05-17T06:07:22;31.10;;;12.33;;
8219;SDS011;4151;51.110;7.020;2023-05-17T06:09:48;34.30;;;11.63;;
8219;SDS011;4151;51.110;7.020;2023-05-17T06:12:14;33.73;;;12.60;;
8219;SDS011;4151;51.110;7.020;2023-05-17T06:14:40;29.37;;;11.50;;
8219;SDS011;4151;51.110;7.020;2023-05-17T06:17:05;27.63;;;14.23;;
8219;SDS011;4151;51.110;7.020;2023-05-17T06:19:31;33.20;;;13.67;;
8219;SDS011;4151;51.110;7.020;2023-05-17T06:21:57;32.17;;;15.00;;
8219;SDS011;4151;51.110;7.020;2023-05-17T06:24:22;31.93;;;14.83;;
8219;SDS011;4151;51.110;7.020;2023-05-17T06:26:48;41.57;;;15.87;;
8219;SDS011;4151;51.110;7.020;2023-05-17T06:29:13;37.17;;;15.70;;
8219;SDS011;4151;51.110;7.020;2023-05-17T06:31:39;38.83;;;15.40;;
8219;SDS011;4151;51.110;7.020;2023-05-17T06:34:04;34.43;;;15.43;;
8219;SDS011;4151;51.110;7.020;2023-05-17T06:36:30;40.17;;;15.17;;
8219;SDS011;4151;51.110;7.020;2023-05-17T06:38:55;35.47;;;14.87;;
8219;SDS011;4151;51.110;7.020;2023-05-17T06:41:21;27.23;;;13.00;;
8219;SDS011;4151;51.110;7.020;2023-05-17T06:43:46;29.17;;;13.97;;
8219;SDS011;4151;51.110;7.020;2023-05-17T06:46:12;30.97;;;11.53;;
8219;SDS011;4151;51.110;7.020;2023-05-17T06:48:37;21.17;;;8.30;;
8219;SDS011;4151;51.110;7.020;2023-05-17T06:51:03;20.30;;;8.40;;
8219;SDS011;4151;51.110;7.020;2023-05-17T06:53:28;23.47;;;7.00;;
8219;SDS011;4151;51.110;7.020;2023-05-17T06:55:54;16.63;;;5.53;;
8219;SDS011;4151;51.110;7.020;2023-05-17T06:58:20;15.60;;;5.40;;
8219;SDS011;4151;51.110;7.020;2023-05-17T07:00:45;10.57;;;4.17;;
8219;SDS011;4151;51.110;7.020;2023-05-17T07:03:11;15.43;;;3.53;;
8219;SDS011;4151;51.110;7.020;2023-05-17T07:05:37;18.67;;;5.13;;
8219;SDS011;4151;51.110;7.020;2023-05-17T07:08:02;20.23;;;3.37;;
8219;SDS011;4151;51.110;7.020;2023-05-17T07:10:28;17.83;;;3.73;;
8219;SDS011;4151;51.110;7.020;2023-05-17T07:12:54;12.10;;;3.60;;
8219;SDS011;4151;51.110;7.020;2023-05-17T07:15:19;11.00;;;2.70;;
8219;SDS011;4151;51.110;7.020;2023-05-17T07:17:45;14.33;;;3.47;;
8219;SDS011;4151;51.110;7.020;2023-05-17T07:20:11;13.23;;;2.87;;
8219;SDS011;4151;51.110;7.020;2023-05-17T07:22:38;21.03;;;3.57;;
8219;SDS011;4151;51.110;7.020;2023-05-17T07:25:04;16.93;;;4.53;;
8219;SDS011;4151;51.110;7.020;2023-05-17T07:27:30;15.03;;;3.90;;
8219;SDS011;4151;51.110;7.020;2023-05-17T07:29:56;13.27;;;3.30;;
8219;SDS011;4151;51.110;7.020;2023-05-17T07:32:21;17.17;;;3.43;;
8219;SDS011;4151;51.110;7.020;2023-05-17T07:34:47;12.70;;;3.83;;
8219;SDS011;4151;51.110;7.020;2023-05-17T07:37:12;6.90;;;2.70;;
8219;SDS011;4151;51.110;7.020;2023-05-17T07:39:38;17.77;;;2.27;;
8219;SDS011;4151;51.110;7.020;2023-05-17T07:42:04;17.53;;;2.67;;
8219;SDS011;4151;51.110;7.020;2023-05-17T07:44:30;10.63;;;2.90;;
8219;SDS011;4151;51.110;7.020;2023-05-17T07:46:56;12.20;;;2.20;;
8219;SDS011;4151;51.110;7.020;2023-05-17T07:49:22;13.03;;;2.60;;
8219;SDS011;4151;51.110;7.020;2023-05-17T07:51:48;17.33;;;2.47;;
8219;SDS011;4151;51.110;7.020;2023-05-17T07:54:23;8.67;;;2.40;;
8219;SDS011;4151;51.110;7.020;2023-05-17T07:56:50;15.00;;;3.20;;
8219;SDS011;4151;51.110;7.020;2023-05-17T07:59:18;13.50;;;2.97;;
8219;SDS011;4151;51.110;7.020;2023-05-17T08:01:45;10.93;;;2.47;;
8219;SDS011;4151;51.110;7.020;2023-05-17T08:04:11;8.77;;;2.83;;
8219;SDS011;4151;51.110;7.020;2023-05-17T08:06:38;8.90;;;2.17;;
8219;SDS011;4151;51.110;7.020;2023-05-17T08:09:04;16.77;;;3.10;;
8219;SDS011;4151;51.110;7.020;2023-05-17T08:11:30;11.70;;;2.10;;
8219;SDS011;4151;51.110;7.020;2023-05-17T08:13:58;16.67;;;3.20;;
8219;SDS011;4151;51.110;7.020;2023-05-17T08:16:24;5.30;;;2.50;;
8219;SDS011;4151;51.110;7.020;2023-05-17T08:18:50;12.13;;;2.43;;
8219;SDS011;4151;51.110;7.020;2023-05-17T08:21:15;10.80;;;3.00;;
8219;SDS011;4151;51.110;7.020;2023-05-17T08:23:41;22.57;;;2.80;;
8219;SDS011;4151;51.110;7.020;2023-05-17T08:26:07;8.50;;;2.40;;
8219;SDS011;4151;51.110;7.020;2023-05-17T08:28:33;14.30;;;2.97;;
8219;SDS011;4151;51.110;7.020;2023-05-17T08:30:58;17.57;;;3.40;;
8219;SDS011;4151;51.110;7.020;2023-05-17T08:33:24;9.83;;;2.47;;
8219;SDS011;4151;51.110;7.020;2023-05-17T08:35:51;14.30;;;2.80;;
8219;SDS011;4151;51.110;7.020;2023-05-17T08:38:19;17.23;;;2.80;;
8219;SDS011;4151;51.110;7.020;2023-05-17T08:40:52;16.90;;;2.37;;
8219;SDS011;4151;51.110;7.020;2023-05-17T08:43:19;12.80;;;2.97;;
8219;SDS011;4151;51.110;7.020;2023-05-17T08:45:46;18.87;;;2.80;;
8219;SDS011;4151;51.110;7.020;2023-05-17T08:48:13;10.60;;;3.30;;
8219;SDS011;4151;51.110;7.020;2023-05-17T08:50:41;11.63;;;3.00;;
8219;SDS011;4151;51.110;7.020;2023-05-17T08:53:08;11.83;;;3.03;;
8219;SDS011;4151;51.110;7.020;2023-05-17T08:55:34;15.07;;;3.40;;
8219;SDS011;4151;51.110;7.020;2023-05-17T08:58:00;10.13;;;2.07;;
8219;SDS011;4151;51.110;7.020;2023-05-17T09:00:27;7.10;;;2.33;;
8219;SDS011;4151;51.110;7.020;2023-05-17T09:02:53;7.83;;;2.13;;
8219;SDS011;4151;51.110;7.020;2023-05-17T09:05:19;6.77;;;2.00;;
8219;SDS011;4151;51.110;7.020;2023-05-17T09:07:46;20.40;;;2.97;;
8219;SDS011;4151;51.110;7.020;2023-05-17T09:10:13;14.23;;;2.40;;
8219;SDS011;4151;51.110;7.020;2023-05-17T09:12:38;14.80;;;1.97;;
8219;SDS011;4151;51.110;7.020;2023-05-17T09:15:17;13.97;;;2.20;;
8219;SDS011;4151;51.110;7.020;2023-05-17T09:17:53;12.13;;;2.30;;
8219;SDS011;4151;51.110;7.020;2023-05-17T09:20:23;11.93;;;2.57;;
8219;SDS011;4151;51.110;7.020;2023-05-17T09:22:57;12.50;;;2.77;;
8219;SDS011;4151;51.110;7.020;2023-05-17T09:25:28;8.00;;;2.30;;
8219;SDS011;4151;51.110;7.020;2023-05-17T09:27:58;9.73;;;3.33;;
8219;SDS011;4151;51.110;7.020;2023-05-17T09:30:26;17.67;;;2.43;;
8219;SDS011;4151;51.110;7.020;2023-05-17T09:32:56;9.53;;;2.30;;
8219;SDS011;4151;51.110;7.020;2023-05-17T09:35:30;15.50;;;2.47;;
8219;SDS011;4151;51.110;7.020;2023-05-17T09:37:57;7.77;;;1.67;;
8219;SDS011;4151;51.110;7.020;2023-05-17T09:40:30;8.73;;;1.93;;
8219;SDS011;4151;51.110;7.020;2023-05-17T09:42:57;9.10;;;1.93;;
8219;SDS011;4151;51.110;7.020;2023-05-17T09:45:23;5.40;;;1.60;;
8219;SDS011;4151;51.110;7.020;2023-05-17T09:47:49;15.03;;;1.87;;
8219;SDS011;4151;51.110;7.020;2023-05-17T09:50:16;15.10;;;1.90;;
8219;SDS011;4151;51.110;7.020;2023-05-17T09:52:43;4.60;;;1.63;;
8219;SDS011;4151;51.110;7.020;2023-05-17T09:55:09;7.60;;;1.77;;
8219;SDS011;4151;51.110;7.020;2023-05-17T09:57:39;11.07;;;2.50;;
8219;SDS011;4151;51.110;7.020;2023-05-17T10:00:06;8.63;;;1.90;;
8219;SDS011;4151;51.110;7.020;2023-05-17T10:02:36;8.80;;;2.73;;
8219;SDS011;4151;51.110;7.020;2023-05-17T10:05:05;25.03;;;2.90;;
8219;SDS011;4151;51.110;7.020;2023-05-17T10:07:34;7.50;;;1.63;;
8219;SDS011;4151;51.110;7.020;2023-05-17T10:10:01;10.77;;;2.10;;
8219;SDS011;4151;51.110;7.020;2023-05-17T10:12:28;4.33;;;1.83;;
8219;SDS011;4151;51.110;7.020;2023-05-17T10:14:57;9.57;;;2.40;;
8219;SDS011;4151;51.110;7.020;2023-05-17T10:17:25;6.33;;;1.97;;
8219;SDS011;4151;51.110;7.020;2023-05-17T10:19:52;3.73;;;1.73;;
8219;SDS011;4151;51.110;7.020;2023-05-17T10:22:19;9.87;;;2.73;;
8219;SDS011;4151;51.110;7.020;2023-05-17T10:24:45;6.20;;;1.70;;
8219;SDS011;4151;51.110;7.020;2023-05-17T10:27:12;10.40;;;1.97;;
8219;SDS011;4151;51.110;7.020;2023-05-17T10:29:40;13.20;;;2.60;;
8219;SDS011;4151;51.110;7.020;2023-05-17T10:32:06;7.90;;;2.20;;
8219;SDS011;4151;51.110;7.020;2023-05-17T10:34:35;6.57;;;1.87;;
8219;SDS011;4151;51.110;7.020;2023-05-17T10:37:02;9.93;;;2.03;;
8219;SDS011;4151;51.110;7.020;2023-05-17T10:39:29;5.00;;;1.73;;
8219;SDS011;4151;51.110;7.020;2023-05-17T10:41:58;10.07;;;1.77;;
8219;SDS011;4151;51.110;7.020;2023-05-17T10:44:26;9.50;;;2.10;;
8219;SDS011;4151;51.110;7.020;2023-05-17T10:46:54;9.37;;;1.57;;
8219;SDS011;4151;51.110;7.020;2023-05-17T10:49:24;7.53;;;2.53;;
8219;SDS011;4151;51.110;7.020;2023-05-17T10:51:57;8.10;;;1.73;;
8219;SDS011;4151;51.110;7.020;2023-05-17T10:54:34;8.97;;;2.70;;
8219;SDS011;4151;51.110;7.020;2023-05-17T10:57:03;8.87;;;1.73;;
8219;SDS011;4151;51.110;7.020;2023-05-17T10:59:30;16.43;;;2.23;;
8219;SDS011;4151;51.110;7.020;2023-05-17T11:02:01;8.10;;;2.10;;
8219;SDS011;4151;51.110;7.020;2023-05-17T11:09:48;11.10;;;2.33;;
8219;SDS011;4151;51.110;7.020;2023-05-17T11:12:28;12.13;;;2.17;;
8219;SDS011;4151;51.110;7.020;2023-05-17T11:15:06;7.73;;;2.00;;
8219;SDS011;4151;51.110;7.020;2023-05-17T11:22:40;5.37;;;1.80;;
8219;SDS011;4151;51.110;7.020;2023-05-17T11:25:08;10.03;;;2.17;;
8219;SDS011;4151;51.110;7.020;2023-05-17T11:27:36;12.73;;;2.53;;
8219;SDS011;4151;51.110;7.020;2023-05-17T11:30:22;6.77;;;2.40;;
8219;SDS011;4151;51.110;7.020;2023-05-17T11:32:49;9.90;;;2.03;;
8219;SDS011;4151;51.110;7.020;2023-05-17T11:35:37;7.50;;;2.20;;
8219;SDS011;4151;51.110;7.020;2023-05-17T11:40:39;11.87;;;2.73;;
8219;SDS011;4151;51.110;7.020;2023-05-17T11:43:24;13.13;;;2.53;;
8219;SDS011;4151;51.110;7.020;2023-05-17T11:45:55;13.27;;;2.43;;
8219;SDS011;4151;51.110;7.020;2023-05-17T11:48:22;6.67;;;2.20;;
8219;SDS011;4151;51.110;7.020;2023-05-17T11:50:49;12.03;;;1.60;;
8219;SDS011;4151;51.110;7.020;2023-05-17T11:53:16;10.53;;;2.47;;
8219;SDS011;4151;51.110;7.020;2023-05-17T11:55:43;10.27;;;4.03;;
8219;SDS011;4151;51.110;7.020;2023-05-17T11:58:17;7.90;;;3.10;;
8219;SDS011;4151;51.110;7.020;2023-05-17T12:00:55;5.90;;;2.30;;
8219;SDS011;4151;51.110;7.020;2023-05-17T12:08:32;5.70;;;2.37;;
8219;SDS011;4151;51.110;7.020;2023-05-17T12:11:00;8.00;;;2.20;;
8219;SDS011;4151;51.110;7.020;2023-05-17T12:13:27;7.30;;;2.20;;
8219;SDS011;4151;51.110;7.020;2023-05-17T12:15:55;8.87;;;2.27;;
8219;SDS011;4151;51.110;7.020;2023-05-17T12:18:21;9.93;;;2.00;;
8219;SDS011;4151;51.110;7.020;2023-05-17T12:23:29;9.03;;;2.07;;
8219;SDS011;4151;51.110;7.020;2023-05-17T12:26:08;8.70;;;1.67;;
8219;SDS011;4151;51.110;7.020;2023-05-17T12:28:36;4.83;;;1.63;;
8219;SDS011;4151;51.110;7.020;2023-05-17T12:31:04;5.40;;;1.80;;
8219;SDS011;4151;51.110;7.020;2023-05-17T12:33:37;8.23;;;2.03;;
8219;SDS011;4151;51.110;7.020;2023-05-17T12:36:05;12.03;;;1.77;;
8219;SDS011;4151;51.110;7.020;2023-05-17T12:38:32;4.80;;;1.50;;
8219;SDS011;4151;51.110;7.020;2023-05-17T12:41:00;4.60;;;1.57;;
8219;SDS011;4151;51.110;7.020;2023-05-17T12:43:27;5.53;;;2.60;;
8219;SDS011;4151;51.110;7.020;2023-05-17T12:46:01;5.90;;;1.93;;
8219;SDS011;4151;51.110;7.020;2023-05-17T12:48:37;8.97;;;2.13;;
8219;SDS011;4151;51.110;7.020;2023-05-17T12:53:42;8.10;;;1.90;;
8219;SDS011;4151;51.110;7.020;2023-05-17T12:56:15;8.17;;;2.10;;
8219;SDS011;4151;51.110;7.020;2023-05-17T13:01:45;9.80;;;2.07;;
8219;SDS011;4151;51.110;7.020;2023-05-17T13:04:13;10.07;;;2.27;;
8219;SDS011;4151;51.110;7.020;2023-05-17T13:06:53;9.40;;;2.57;;
8219;SDS011;4151;51.110;7.020;2023-05-17T13:09:21;5.47;;;1.63;;
8219;SDS011;4151;51.110;7.020;2023-05-17T13:12:06;8.73;;;2.17;;
8219;SDS011;4151;51.110;7.020;2023-05-17T13:14:33;10.97;;;2.80;;
8219;SDS011;4151;51.110;7.020;2023-05-17T13:17:03;3.77;;;1.73;;
8219;SDS011;4151;51.110;7.020;2023-05-17T13:19:31;5.53;;;1.63;;
8219;SDS011;4151;51.110;7.020;2023-05-17T13:21:56;6.50;;;2.13;;
8219;SDS011;4151;51.110;7.020;2023-05-17T13:24:22;5.93;;;1.77;;
8219;SDS011;4151;51.110;7.020;2023-05-17T13:26:48;7.50;;;2.40;;
8219;SDS011;4151;51.110;7.020;2023-05-17T13:29:14;5.93;;;2.03;;
8219;SDS011;4151;51.110;7.020;2023-05-17T13:31:39;6.77;;;1.80;;
8219;SDS011;4151;51.110;7.020;2023-05-17T13:34:06;6.77;;;2.03;;
8219;SDS011;4151;51.110;7.020;2023-05-17T13:36:32;4.13;;;1.70;;
8219;SDS011;4151;51.110;7.020;2023-05-17T13:38:57;6.23;;;2.80;;
8219;SDS011;4151;51.110;7.020;2023-05-17T13:41:25;6.23;;;1.73;;
8219;SDS011;4151;51.110;7.020;2023-05-17T13:43:51;8.07;;;2.20;;
8219;SDS011;4151;51.110;7.020;2023-05-17T13:46:17;8.13;;;2.00;;
8219;SDS011;4151;51.110;7.020;2023-05-17T13:48:43;6.87;;;2.10;;
8219;SDS011;4151;51.110;7.020;2023-05-17T13:51:08;5.93;;;1.90;;
8219;SDS011;4151;51.110;7.020;2023-05-17T13:53:34;6.87;;;2.23;;
8219;SDS011;4151;51.110;7.020;2023-05-17T13:55:59;6.97;;;1.70;;
8219;SDS011;4151;51.110;7.020;2023-05-17T13:58:25;4.83;;;2.10;;
8219;SDS011;4151;51.110;7.020;2023-05-17T14:00:50;6.27;;;1.80;;
8219;SDS011;4151;51.110;7.020;2023-05-17T14:03:16;6.27;;;1.80;;
8219;SDS011;4151;51.110;7.020;2023-05-17T14:05:42;7.43;;;2.50;;
8219;SDS011;4151;51.110;7.020;2023-05-17T14:08:08;4.87;;;1.77;;
8219;SDS011;4151;51.110;7.020;2023-05-17T14:10:34;6.60;;;2.37;;
8219;SDS011;4151;51.110;7.020;2023-05-17T14:13:00;5.90;;;2.00;;
8219;SDS011;4151;51.110;7.020;2023-05-17T14:15:26;5.63;;;1.60;;
8219;SDS011;4151;51.110;7.020;2023-05-17T14:17:51;7.57;;;1.83;;
8219;SDS011;4151;51.110;7.020;2023-05-17T14:20:17;7.97;;;2.53;;
8219;SDS011;4151;51.110;7.020;2023-05-17T14:22:43;11.13;;;3.00;;
8219;SDS011;4151;51.110;7.020;2023-05-17T14:25:09;7.17;;;2.50;;
8219;SDS011;4151;51.110;7.020;2023-05-17T14:27:35;8.67;;;1.73;;
8219;SDS011;4151;51.110;7.020;2023-05-17T14:30:01;4.20;;;2.60;;
8219;SDS011;4151;51.110;7.020;2023-05-17T14:32:28;10.13;;;1.63;;
8219;SDS011;4151;51.110;7.020;2023-05-17T14:34:53;5.67;;;2.27;;
8219;SDS011;4151;51.110;7.020;2023-05-17T14:37:19;6.27;;;2.13;;
8219;SDS011;4151;51.110;7.020;2023-05-17T14:39:46;5.60;;;2.40;;
8219;SDS011;4151;51.110;7.020;2023-05-17T14:42:12;4.30;;;1.90;;
8219;SDS011;4151;51.110;7.020;2023-05-17T14:44:37;5.70;;;1.93;;
8219;SDS011;4151;51.110;7.020;2023-05-17T14:47:05;3.90;;;1.93;;
8219;SDS011;4151;51.110;7.020;2023-05-17T14:49:31;5.77;;;1.90;;
8219;SDS011;4151;51.110;7.020;2023-05-17T14:51:57;6.00;;;1.97;;
8219;SDS011;4151;51.110;7.020;2023-05-17T14:54:22;4.40;;;2.20;;
8219;SDS011;4151;51.110;7.020;2023-05-17T14:56:50;8.83;;;2.07;;
8219;SDS011;4151;51.110;7.020;2023-05-17T14:59:15;8.93;;;2.53;;
8219;SDS011;4151;51.110;7.020;2023-05-17T15:01:41;4.63;;;2.03;;
8219;SDS011;4151;51.110;7.020;2023-05-17T15:04:07;9.13;;;2.07;;
8219;SDS011;4151;51.110;7.020;2023-05-17T15:06:34;6.63;;;2.47;;
8219;SDS011;4151;51.110;7.020;2023-05-17T15:09:00;4.93;;;2.00;;
8219;SDS011;4151;51.110;7.020;2023-05-17T15:11:27;7.97;;;1.90;;
8219;SDS011;4151;51.110;7.020;2023-05-17T15:13:53;7.83;;;1.97;;
8219;SDS011;4151;51.110;7.020;2023-05-17T15:16:20;6.80;;;2.30;;
8219;SDS011;4151;51.110;7.020;2023-05-17T15:18:46;5.67;;;1.97;;
8219;SDS011;4151;51.110;7.020;2023-05-17T15:21:12;3.53;;;1.63;;
8219;SDS011;4151;51.110;7.020;2023-05-17T15:23:37;6.27;;;1.83;;
8219;SDS011;4151;51.110;7.020;2023-05-17T15:26:03;7.90;;;2.10;;
8219;SDS011;4151;51.110;7.020;2023-05-17T15:28:28;8.33;;;2.13;;
8219;SDS011;4151;51.110;7.020;2023-05-17T15:30:58;4.10;;;2.00;;
8219;SDS011;4151;51.110;7.020;2023-05-17T15:33:30;6.10;;;2.40;;
8219;SDS011;4151;51.110;7.020;2023-05-17T15:35:56;5.03;;;2.30;;
8219;SDS011;4151;51.110;7.020;2023-05-17T15:38:22;6.10;;;1.83;;
8219;SDS011;4151;51.110;7.020;2023-05-17T15:40:50;4.93;;;2.20;;
8219;SDS011;4151;51.110;7.020;2023-05-17T15:43:32;3.30;;;1.93;;
8219;SDS011;4151;51.110;7.020;2023-05-17T15:45:58;6.10;;;1.90;;
8219;SDS011;4151;51.110;7.020;2023-05-17T15:48:24;8.93;;;2.77;;
8219;SDS011;4151;51.110;7.020;2023-05-17T15:50:52;4.70;;;1.73;;